Superferry II — SWKV — position and weather

sailwx.info

Track history (hours):
 
Tides and Currents Weather Stations Pressure Air Temp Water Temp Dewpoint Dewpoint Depression Visibility Wind Speed Wind Dir Waves Ship Positions

Superferry II

Last reported at 2016-Aug-26 08:19 UTC. Time now 2016-Aug-26 10:17 UTC.
Position N 37°36' E 025°02'.

Length 122 m; draft 4.7 m.

Type: Passenger vessel. MMSI: 237001000.

Date/timePositionNaut miles runAvg speedWind from/ knotsBaromVisibWave heightAir tempDewpointWater temp
2016-Aug-26 08:19N 37°36' E 025°02'810.3
2016-Aug-26 07:34N 37°32' E 025°09'9 9.2
2016-Aug-26 06:33N 37°25' E 025°17'17 1.8
2016-Aug-25 21:25N 37°09' E 025°12'8 9.0
2016-Aug-25 20:33N 37°08' E 025°21'1919.0
2016-Aug-25 19:33N 37°26' E 025°17'3 3.2
2016-Aug-25 18:33N 37°29' E 025°15'1111.4
2016-Aug-25 17:33N 37°35' E 025°03'1918.8
2016-Aug-25 16:33N 37°49' E 024°47'2914.2
2016-Aug-25 14:33N 37°59' E 024°13'8 2.6
2016-Aug-25 11:34N 38°01' E 024°03'5015.6
2016-Aug-25 08:20N 37°38' E 024°60'912.1
2016-Aug-25 07:33N 37°32' E 025°09'9 9.1
2016-Aug-25 06:33N 37°26' E 025°17'19 1.9
2016-Aug-24 20:34N 37°07' E 025°21'1211.7
2016-Aug-24 19:33N 37°19' E 025°18'9 8.8
2016-Aug-24 18:34N 37°28' E 025°18'1211.9
2016-Aug-24 17:34N 37°34' E 025°05'2019.1
2016-Aug-24 16:31N 37°48' E 024°48'2914.4
2016-Aug-24 14:31N 37°58' E 024°14'4 1.3
2016-Aug-24 11:33N 37°59' E 024°09'4715.4
2016-Aug-24 08:31N 37°37' E 025°01'1010.3
2016-Aug-24 07:33N 37°31' E 025°11'8 8.3
2016-Aug-24 06:33N 37°24' E 025°17'15 1.5
2016-Aug-23 20:34N 37°10' E 025°18'7 6.9
2016-Aug-23 19:33N 37°17' E 025°19'1212.1
2016-Aug-23 18:34N 37°28' E 025°16'1111.3
2016-Aug-23 17:33N 37°34' E 025°04'4815.4
2016-Aug-23 14:27N 37°59' E 024°12'7 2.6
2016-Aug-23 11:33N 38°01' E 024°03'5115.7
2016-Aug-23 08:18N 37°37' E 025°01'811.2
2016-Aug-23 07:33N 37°32' E 025°09'9 8.8
2016-Aug-23 06:33N 37°26' E 025°17'1818.3
2016-Aug-23 05:33N 37°08' E 025°21'1 0.1
2016-Aug-22 20:33N 37°08' E 025°20'10 9.7
2016-Aug-22 19:33N 37°18' E 025°19'1110.7
2016-Aug-22 18:33N 37°28' E 025°17'1211.5
2016-Aug-22 17:33N 37°34' E 025°04'4715.5
2016-Aug-22 14:30N 37°59' E 024°13'2 0.7
2016-Aug-22 11:31N 37°59' E 024°11'4414.2
2016-Aug-22 08:25N 37°38' E 024°60'911.1
2016-Aug-22 07:34N 37°32' E 025°09'10 9.9
2016-Aug-22 06:33N 37°24' E 025°17'1818.4
2016-Aug-22 05:33N 37°06' E 025°22'6 1.6
2016-Aug-22 01:33N 37°10' E 025°16'6 5.6
2016-Aug-22 00:33N 37°15' E 025°19'1313.5
2016-Aug-21 23:34N 37°28' E 025°18'5416.6
2016-Aug-21 20:18N 37°55' E 024°18'1418.3
2016-Aug-21 19:34N 38°01' E 024°03'1 1.2
2016-Aug-21 18:33N 38°01' E 024°02'5914.7
2016-Aug-21 14:33N 37°33' E 025°07'1010.4
2016-Aug-21 13:33N 37°28' E 025°19'1110.7
2016-Aug-21 12:33N 37°17' E 025°19'1010.0
2016-Aug-21 11:33N 37°07' E 025°20'10 0.7
2016-Aug-20 21:23N 37°07' E 025°08'1113.9
2016-Aug-20 20:33N 37°06' E 025°22'1615.9
2016-Aug-20 19:33N 37°22' E 025°18'1110.0
2016-Aug-20 18:30N 37°31' E 025°11'5213.2
2016-Aug-20 14:32N 37°58' E 024°14'11 5.0
2016-Aug-20 12:17N 38°01' E 024°01'4313.8
2016-Aug-20 09:09N 37°44' E 024°51'1118.3
2016-Aug-20 08:34N 37°37' E 025°01'9 8.9
2016-Aug-20 07:34N 37°31' E 025°10'9 8.6
2016-Aug-20 06:33N 37°25' E 025°17'1818.4
2016-Aug-20 05:33N 37°07' E 025°22'1 0.1
2016-Aug-19 20:33N 37°08' E 025°21'1010.0
2016-Aug-19 19:33N 37°17' E 025°18'1110.6
2016-Aug-19 18:33N 37°28' E 025°19'1312.9
2016-Aug-19 17:33N 37°34' E 025°05'4715.5
2016-Aug-19 14:31N 37°58' E 024°13'7 2.3
2016-Aug-19 11:34N 38°01' E 024°05'4615.2
2016-Aug-19 08:33N 37°40' E 024°57'1312.6
2016-Aug-19 07:34N 37°32' E 025°09'9 8.8
2016-Aug-19 06:33N 37°26' E 025°17'1919.0
2016-Aug-19 05:34N 37°08' E 025°22'4 0.4
2016-Aug-18 20:34N 37°10' E 025°18'6 6.4
2016-Aug-18 19:33N 37°16' E 025°19'1212.2
2016-Aug-18 18:33N 37°28' E 025°17'1110.8
2016-Aug-18 17:31N 37°34' E 025°05'1818.7
2016-Aug-18 16:33N 37°47' E 024°49'3215.0
2016-Aug-18 14:26N 37°59' E 024°12'8 2.6
2016-Aug-18 11:34N 38°01' E 024°03'3415.1
2016-Aug-18 09:19N 37°52' E 024°44'1719.1
2016-Aug-18 08:27N 37°39' E 024°58'1213.2
2016-Aug-18 07:34N 37°32' E 025°09'9 8.8
2016-Aug-18 06:33N 37°26' E 025°17'1918.7
2016-Aug-18 05:34N 37°08' E 025°22'1 0.2
2016-Aug-17 20:34N 37°08' E 025°20'8 8.0
2016-Aug-17 19:33N 37°16' E 025°19'1212.2
2016-Aug-17 18:34N 37°28' E 025°17'1111.1
2016-Aug-17 17:33N 37°34' E 025°05'1918.7
2016-Aug-17 16:33N 37°47' E 024°49'2914.3
2016-Aug-17 14:32N 37°58' E 024°15'7 2.3
2016-Aug-17 11:33N 38°00' E 024°06'4514.9
2016-Aug-17 08:33N 37°40' E 024°57'1312.6
2016-Aug-17 07:33N 37°32' E 025°09'9 9.0
2016-Aug-17 06:33N 37°26' E 025°17'1818.3
2016-Aug-17 05:34N 37°08' E 025°21'1 0.1
2016-Aug-16 20:33N 37°07' E 025°21'1212.1
2016-Aug-16 19:34N 37°19' E 025°18'10 9.8
2016-Aug-16 18:33N 37°29' E 025°15'5914.7
2016-Aug-16 14:33N 37°59' E 024°11'2 0.7
2016-Aug-16 11:33N 37°60' E 024°08'4615.0
2016-Aug-16 08:31N 37°38' E 024°59'  
Track history (hours):
 
Tides and Currents Weather Stations Pressure Air Temp Water Temp Dewpoint Dewpoint Depression Visibility Wind Speed Wind Dir Waves Ship Positions

Superferry II

Last reported at 2016-Aug-26 08:19 UTC. Time now 2016-Aug-26 10:17 UTC.
Position N 37°36' E 025°02'.

Length 122 m; draft 4.7 m.

Type: Passenger vessel. MMSI: 237001000.

Date/timePositionNaut miles runAvg speedWind from/ knotsBaromVisibWave heightAir tempDewpointWater temp
2016-Aug-26 08:19N 37°36' E 025°02'810.3
2016-Aug-26 07:34N 37°32' E 025°09'9 9.2
2016-Aug-26 06:33N 37°25' E 025°17'17 1.8
2016-Aug-25 21:25N 37°09' E 025°12'8 9.0
2016-Aug-25 20:33N 37°08' E 025°21'1919.0
2016-Aug-25 19:33N 37°26' E 025°17'3 3.2
2016-Aug-25 18:33N 37°29' E 025°15'1111.4
2016-Aug-25 17:33N 37°35' E 025°03'1918.8
2016-Aug-25 16:33N 37°49' E 024°47'2914.2
2016-Aug-25 14:33N 37°59' E 024°13'8 2.6
2016-Aug-25 11:34N 38°01' E 024°03'5015.6
2016-Aug-25 08:20N 37°38' E 024°60'912.1
2016-Aug-25 07:33N 37°32' E 025°09'9 9.1
2016-Aug-25 06:33N 37°26' E 025°17'19 1.9
2016-Aug-24 20:34N 37°07' E 025°21'1211.7
2016-Aug-24 19:33N 37°19' E 025°18'9 8.8
2016-Aug-24 18:34N 37°28' E 025°18'1211.9
2016-Aug-24 17:34N 37°34' E 025°05'2019.1
2016-Aug-24 16:31N 37°48' E 024°48'2914.4
2016-Aug-24 14:31N 37°58' E 024°14'4 1.3
2016-Aug-24 11:33N 37°59' E 024°09'4715.4
2016-Aug-24 08:31N 37°37' E 025°01'1010.3
2016-Aug-24 07:33N 37°31' E 025°11'8 8.3
2016-Aug-24 06:33N 37°24' E 025°17'15 1.5
2016-Aug-23 20:34N 37°10' E 025°18'7 6.9
2016-Aug-23 19:33N 37°17' E 025°19'1212.1
2016-Aug-23 18:34N 37°28' E 025°16'1111.3
2016-Aug-23 17:33N 37°34' E 025°04'4815.4
2016-Aug-23 14:27N 37°59' E 024°12'7 2.6
2016-Aug-23 11:33N 38°01' E 024°03'5115.7
2016-Aug-23 08:18N 37°37' E 025°01'811.2
2016-Aug-23 07:33N 37°32' E 025°09'9 8.8
2016-Aug-23 06:33N 37°26' E 025°17'1818.3
2016-Aug-23 05:33N 37°08' E 025°21'1 0.1
2016-Aug-22 20:33N 37°08' E 025°20'10 9.7
2016-Aug-22 19:33N 37°18' E 025°19'1110.7
2016-Aug-22 18:33N 37°28' E 025°17'1211.5
2016-Aug-22 17:33N 37°34' E 025°04'4715.5
2016-Aug-22 14:30N 37°59' E 024°13'2 0.7
2016-Aug-22 11:31N 37°59' E 024°11'4414.2
2016-Aug-22 08:25N 37°38' E 024°60'911.1
2016-Aug-22 07:34N 37°32' E 025°09'10 9.9
2016-Aug-22 06:33N 37°24' E 025°17'1818.4
2016-Aug-22 05:33N 37°06' E 025°22'6 1.6
2016-Aug-22 01:33N 37°10' E 025°16'6 5.6
2016-Aug-22 00:33N 37°15' E 025°19'1313.5
2016-Aug-21 23:34N 37°28' E 025°18'5416.6
2016-Aug-21 20:18N 37°55' E 024°18'1418.3
2016-Aug-21 19:34N 38°01' E 024°03'1 1.2
2016-Aug-21 18:33N 38°01' E 024°02'5914.7
2016-Aug-21 14:33N 37°33' E 025°07'1010.4
2016-Aug-21 13:33N 37°28' E 025°19'1110.7
2016-Aug-21 12:33N 37°17' E 025°19'1010.0
2016-Aug-21 11:33N 37°07' E 025°20'10 0.7
2016-Aug-20 21:23N 37°07' E 025°08'1113.9
2016-Aug-20 20:33N 37°06' E 025°22'1615.9
2016-Aug-20 19:33N 37°22' E 025°18'1110.0
2016-Aug-20 18:30N 37°31' E 025°11'5213.2
2016-Aug-20 14:32N 37°58' E 024°14'11 5.0
2016-Aug-20 12:17N 38°01' E 024°01'4313.8
2016-Aug-20 09:09N 37°44' E 024°51'1118.3
2016-Aug-20 08:34N 37°37' E 025°01'9 8.9
2016-Aug-20 07:34N 37°31' E 025°10'9 8.6
2016-Aug-20 06:33N 37°25' E 025°17'1818.4
2016-Aug-20 05:33N 37°07' E 025°22'1 0.1
2016-Aug-19 20:33N 37°08' E 025°21'1010.0
2016-Aug-19 19:33N 37°17' E 025°18'1110.6
2016-Aug-19 18:33N 37°28' E 025°19'1312.9
2016-Aug-19 17:33N 37°34' E 025°05'4715.5
2016-Aug-19 14:31N 37°58' E 024°13'7 2.3
2016-Aug-19 11:34N 38°01' E 024°05'4615.2
2016-Aug-19 08:33N 37°40' E 024°57'1312.6
2016-Aug-19 07:34N 37°32' E 025°09'9 8.8
2016-Aug-19 06:33N 37°26' E 025°17'1919.0
2016-Aug-19 05:34N 37°08' E 025°22'4 0.4
2016-Aug-18 20:34N 37°10' E 025°18'6 6.4
2016-Aug-18 19:33N 37°16' E 025°19'1212.2
2016-Aug-18 18:33N 37°28' E 025°17'1110.8
2016-Aug-18 17:31N 37°34' E 025°05'1818.7
2016-Aug-18 16:33N 37°47' E 024°49'3215.0
2016-Aug-18 14:26N 37°59' E 024°12'8 2.6
2016-Aug-18 11:34N 38°01' E 024°03'3415.1
2016-Aug-18 09:19N 37°52' E 024°44'1719.1
2016-Aug-18 08:27N 37°39' E 024°58'1213.2
2016-Aug-18 07:34N 37°32' E 025°09'9 8.8
2016-Aug-18 06:33N 37°26' E 025°17'1918.7
2016-Aug-18 05:34N 37°08' E 025°22'1 0.2
2016-Aug-17 20:34N 37°08' E 025°20'8 8.0
2016-Aug-17 19:33N 37°16' E 025°19'1212.2
2016-Aug-17 18:34N 37°28' E 025°17'1111.1
2016-Aug-17 17:33N 37°34' E 025°05'1918.7
2016-Aug-17 16:33N 37°47' E 024°49'2914.3
2016-Aug-17 14:32N 37°58' E 024°15'7 2.3
2016-Aug-17 11:33N 38°00' E 024°06'4514.9
2016-Aug-17 08:33N 37°40' E 024°57'1312.6
2016-Aug-17 07:33N 37°32' E 025°09'9 9.0
2016-Aug-17 06:33N 37°26' E 025°17'1818.3
2016-Aug-17 05:34N 37°08' E 025°21'1 0.1
2016-Aug-16 20:33N 37°07' E 025°21'1212.1
2016-Aug-16 19:34N 37°19' E 025°18'10 9.8
2016-Aug-16 18:33N 37°29' E 025°15'5914.7
2016-Aug-16 14:33N 37°59' E 024°11'2 0.7
2016-Aug-16 11:33N 37°60' E 024°08'4615.0
2016-Aug-16 08:31N 37°38' E 024°59'  

Dump ship's entire track history